sensor_id;sensor_type;location;lat;lon;timestamp;P1;durP1;ratioP1;P2;durP2;ratioP2
56629;SDS011;42502;40.732;-74.254;2023-04-03T00:00:57;5.32;;;0.40;;
56629;SDS011;42502;40.732;-74.254;2023-04-03T00:03:00;1.55;;;0.40;;
56629;SDS011;42502;40.732;-74.254;2023-04-03T00:05:04;3.63;;;0.70;;
56629;SDS011;42502;40.732;-74.254;2023-04-03T00:07:06;5.53;;;0.50;;
56629;SDS011;42502;40.732;-74.254;2023-04-03T00:09:06;5.88;;;0.40;;
56629;SDS011;42502;40.732;-74.254;2023-04-03T00:11:07;4.22;;;0.40;;
56629;SDS011;42502;40.732;-74.254;2023-04-03T00:13:09;5.60;;;0.40;;
56629;SDS011;42502;40.732;-74.254;2023-04-03T00:15:13;6.63;;;0.40;;
56629;SDS011;42502;40.732;-74.254;2023-04-03T00:17:14;2.63;;;0.40;;
56629;SDS011;42502;40.732;-74.254;2023-04-03T00:19:18;3.83;;;0.40;;
56629;SDS011;42502;40.732;-74.254;2023-04-03T00:21:19;5.20;;;0.60;;
56629;SDS011;42502;40.732;-74.254;2023-04-03T00:23:20;3.65;;;0.40;;
56629;SDS011;42502;40.732;-74.254;2023-04-03T00:25:21;4.82;;;0.40;;
56629;SDS011;42502;40.732;-74.254;2023-04-03T00:27:22;6.53;;;0.50;;
56629;SDS011;42502;40.732;-74.254;2023-04-03T00:29:23;4.38;;;0.50;;
56629;SDS011;42502;40.732;-74.254;2023-04-03T00:31:24;4.07;;;0.40;;
56629;SDS011;42502;40.732;-74.254;2023-04-03T00:33:25;4.30;;;0.40;;
56629;SDS011;42502;40.732;-74.254;2023-04-03T00:35:26;4.93;;;0.40;;
56629;SDS011;42502;40.732;-74.254;2023-04-03T00:37:27;1.73;;;0.30;;
56629;SDS011;42502;40.732;-74.254;2023-04-03T00:39:28;3.03;;;0.35;;
56629;SDS011;42502;40.732;-74.254;2023-04-03T00:41:29;4.43;;;0.50;;
56629;SDS011;42502;40.732;-74.254;2023-04-03T00:43:32;4.72;;;0.40;;
56629;SDS011;42502;40.732;-74.254;2023-04-03T00:45:37;5.47;;;0.80;;
56629;SDS011;42502;40.732;-74.254;2023-04-03T00:47:40;7.57;;;0.60;;
56629;SDS011;42502;40.732;-74.254;2023-04-03T00:49:42;4.78;;;0.40;;
56629;SDS011;42502;40.732;-74.254;2023-04-03T00:51:44;3.80;;;0.32;;
56629;SDS011;42502;40.732;-74.254;2023-04-03T00:53:47;7.28;;;0.43;;
56629;SDS011;42502;40.732;-74.254;2023-04-03T00:55:51;4.63;;;0.40;;
56629;SDS011;42502;40.732;-74.254;2023-04-03T00:57:54;8.02;;;0.60;;
56629;SDS011;42502;40.732;-74.254;2023-04-03T01:00:00;6.78;;;0.55;;
56629;SDS011;42502;40.732;-74.254;2023-04-03T01:02:07;3.42;;;0.40;;
56629;SDS011;42502;40.732;-74.254;2023-04-03T01:06:29;4.15;;;0.40;;
56629;SDS011;42502;40.732;-74.254;2023-04-03T01:08:34;4.85;;;0.40;;
56629;SDS011;42502;40.732;-74.254;2023-04-03T01:10:35;4.80;;;0.40;;
56629;SDS011;42502;40.732;-74.254;2023-04-03T01:12:37;8.93;;;0.40;;
56629;SDS011;42502;40.732;-74.254;2023-04-03T01:14:40;5.95;;;0.47;;
56629;SDS011;42502;40.732;-74.254;2023-04-03T01:16:41;3.35;;;0.43;;
56629;SDS011;42502;40.732;-74.254;2023-04-03T01:18:42;7.50;;;0.40;;
56629;SDS011;42502;40.732;-74.254;2023-04-03T01:20:55;7.07;;;0.68;;
56629;SDS011;42502;40.732;-74.254;2023-04-03T01:25:13;8.90;;;0.60;;
56629;SDS011;42502;40.732;-74.254;2023-04-03T01:27:14;23.00;;;0.98;;
56629;SDS011;42502;40.732;-74.254;2023-04-03T01:29:18;11.77;;;0.50;;
56629;SDS011;42502;40.732;-74.254;2023-04-03T01:33:28;19.27;;;0.50;;
56629;SDS011;42502;40.732;-74.254;2023-04-03T01:35:30;18.85;;;0.70;;
56629;SDS011;42502;40.732;-74.254;2023-04-03T01:37:31;12.65;;;0.60;;
56629;SDS011;42502;40.732;-74.254;2023-04-03T01:39:34;8.85;;;0.55;;
56629;SDS011;42502;40.732;-74.254;2023-04-03T01:41:35;13.48;;;0.70;;
56629;SDS011;42502;40.732;-74.254;2023-04-03T01:43:36;15.40;;;0.60;;
56629;SDS011;42502;40.732;-74.254;2023-04-03T01:45:37;10.80;;;0.60;;
56629;SDS011;42502;40.732;-74.254;2023-04-03T01:47:38;22.02;;;0.95;;
56629;SDS011;42502;40.732;-74.254;2023-04-03T01:49:39;9.63;;;0.70;;
56629;SDS011;42502;40.732;-74.254;2023-04-03T01:51:39;10.65;;;0.70;;
56629;SDS011;42502;40.732;-74.254;2023-04-03T01:53:40;9.45;;;0.55;;
56629;SDS011;42502;40.732;-74.254;2023-04-03T01:55:41;7.10;;;0.80;;
56629;SDS011;42502;40.732;-74.254;2023-04-03T01:57:45;11.75;;;0.82;;
56629;SDS011;42502;40.732;-74.254;2023-04-03T01:59:51;8.40;;;0.63;;
56629;SDS011;42502;40.732;-74.254;2023-04-03T02:01:52;9.15;;;0.80;;
56629;SDS011;42502;40.732;-74.254;2023-04-03T02:03:55;21.25;;;0.90;;
56629;SDS011;42502;40.732;-74.254;2023-04-03T02:05:56;15.18;;;0.75;;
56629;SDS011;42502;40.732;-74.254;2023-04-03T02:07:57;10.70;;;0.70;;
56629;SDS011;42502;40.732;-74.254;2023-04-03T02:09:58;13.48;;;0.63;;
56629;SDS011;42502;40.732;-74.254;2023-04-03T02:11:59;3.20;;;0.50;;
56629;SDS011;42502;40.732;-74.254;2023-04-03T02:14:00;11.32;;;0.80;;
56629;SDS011;42502;40.732;-74.254;2023-04-03T02:16:10;11.82;;;0.70;;
56629;SDS011;42502;40.732;-74.254;2023-04-03T02:18:12;11.52;;;0.73;;
56629;SDS011;42502;40.732;-74.254;2023-04-03T02:20:13;8.93;;;0.70;;
56629;SDS011;42502;40.732;-74.254;2023-04-03T02:22:20;13.57;;;1.05;;
56629;SDS011;42502;40.732;-74.254;2023-04-03T02:24:21;7.53;;;0.50;;
56629;SDS011;42502;40.732;-74.254;2023-04-03T02:26:22;6.75;;;0.80;;
56629;SDS011;42502;40.732;-74.254;2023-04-03T02:28:26;11.57;;;0.68;;
56629;SDS011;42502;40.732;-74.254;2023-04-03T02:30:27;15.63;;;0.70;;
56629;SDS011;42502;40.732;-74.254;2023-04-03T02:32:28;5.57;;;0.52;;
56629;SDS011;42502;40.732;-74.254;2023-04-03T02:34:28;8.32;;;0.75;;
56629;SDS011;42502;40.732;-74.254;2023-04-03T11:34:57;14.05;;;0.93;;
56629;SDS011;42502;40.732;-74.254;2023-04-03T11:37:01;7.25;;;0.70;;
56629;SDS011;42502;40.732;-74.254;2023-04-03T11:41:31;9.90;;;0.80;;
56629;SDS011;42502;40.732;-74.254;2023-04-03T11:43:37;8.43;;;0.80;;
56629;SDS011;42502;40.732;-74.254;2023-04-03T11:45:50;8.80;;;0.70;;
56629;SDS011;42502;40.732;-74.254;2023-04-03T11:54:44;6.50;;;0.70;;
56629;SDS011;42502;40.732;-74.254;2023-04-03T11:56:46;7.63;;;0.70;;
56629;SDS011;42502;40.732;-74.254;2023-04-03T11:59:29;9.13;;;0.80;;
56629;SDS011;42502;40.732;-74.254;2023-04-03T12:01:42;12.25;;;0.70;;
56629;SDS011;42502;40.732;-74.254;2023-04-03T12:04:02;9.55;;;0.73;;
56629;SDS011;42502;40.732;-74.254;2023-04-03T12:08:25;5.57;;;1.13;;
56629;SDS011;42502;40.732;-74.254;2023-04-03T12:11:12;12.80;;;0.88;;
56629;SDS011;42502;40.732;-74.254;2023-04-03T12:13:15;13.18;;;1.20;;
56629;SDS011;42502;40.732;-74.254;2023-04-03T12:15:18;10.43;;;1.00;;
56629;SDS011;42502;40.732;-74.254;2023-04-03T12:17:26;10.32;;;1.00;;
56629;SDS011;42502;40.732;-74.254;2023-04-03T12:19:31;12.80;;;1.30;;
56629;SDS011;42502;40.732;-74.254;2023-04-03T12:23:59;22.20;;;1.65;;
56629;SDS011;42502;40.732;-74.254;2023-04-03T12:26:20;15.70;;;1.45;;
56629;SDS011;42502;40.732;-74.254;2023-04-03T12:28:22;15.07;;;1.10;;
56629;SDS011;42502;40.732;-74.254;2023-04-03T12:30:28;30.92;;;1.63;;
56629;SDS011;42502;40.732;-74.254;2023-04-03T12:39:52;7.97;;;1.10;;
56629;SDS011;42502;40.732;-74.254;2023-04-03T12:44:37;15.25;;;1.63;;
56629;SDS011;42502;40.732;-74.254;2023-04-03T12:46:48;13.90;;;1.20;;
56629;SDS011;42502;40.732;-74.254;2023-04-03T12:48:52;12.07;;;1.50;;
56629;SDS011;42502;40.732;-74.254;2023-04-03T12:50:55;7.22;;;1.30;;
56629;SDS011;42502;40.732;-74.254;2023-04-03T12:55:19;12.73;;;1.30;;
56629;SDS011;42502;40.732;-74.254;2023-04-03T12:57:24;11.23;;;1.13;;
56629;SDS011;42502;40.732;-74.254;2023-04-03T12:59:26;7.47;;;1.20;;
56629;SDS011;42502;40.732;-74.254;2023-04-03T13:01:27;12.32;;;1.35;;
56629;SDS011;42502;40.732;-74.254;2023-04-03T13:03:28;9.52;;;1.13;;
56629;SDS011;42502;40.732;-74.254;2023-04-03T13:05:30;19.48;;;1.30;;
56629;SDS011;42502;40.732;-74.254;2023-04-03T13:07:33;4.32;;;1.00;;
56629;SDS011;42502;40.732;-74.254;2023-04-03T13:09:38;7.03;;;0.98;;
56629;SDS011;42502;40.732;-74.254;2023-04-03T13:11:39;8.32;;;1.10;;
56629;SDS011;42502;40.732;-74.254;2023-04-03T13:13:55;9.00;;;0.95;;
56629;SDS011;42502;40.732;-74.254;2023-04-03T13:16:00;6.72;;;0.90;;
56629;SDS011;42502;40.732;-74.254;2023-04-03T13:18:23;7.60;;;0.95;;
56629;SDS011;42502;40.732;-74.254;2023-04-03T13:20:32;9.30;;;0.93;;
56629;SDS011;42502;40.732;-74.254;2023-04-03T13:22:39;11.18;;;1.50;;
56629;SDS011;42502;40.732;-74.254;2023-04-03T13:24:54;6.32;;;1.13;;
56629;SDS011;42502;40.732;-74.254;2023-04-03T13:26:58;9.20;;;1.00;;
56629;SDS011;42502;40.732;-74.254;2023-04-03T13:29:01;4.13;;;0.80;;
56629;SDS011;42502;40.732;-74.254;2023-04-03T13:33:19;6.88;;;1.10;;
56629;SDS011;42502;40.732;-74.254;2023-04-03T13:35:32;4.63;;;0.80;;
56629;SDS011;42502;40.732;-74.254;2023-04-03T13:37:52;7.63;;;0.90;;
56629;SDS011;42502;40.732;-74.254;2023-04-03T13:39:59;7.35;;;1.25;;
56629;SDS011;42502;40.732;-74.254;2023-04-03T13:42:02;3.70;;;0.73;;
56629;SDS011;42502;40.732;-74.254;2023-04-03T13:46:25;5.35;;;0.85;;
56629;SDS011;42502;40.732;-74.254;2023-04-03T13:48:34;6.07;;;0.75;;
56629;SDS011;42502;40.732;-74.254;2023-04-03T13:51:23;9.43;;;1.00;;
56629;SDS011;42502;40.732;-74.254;2023-04-03T13:53:08;4.22;;;0.88;;
56629;SDS011;42502;40.732;-74.254;2023-04-03T13:56:16;5.15;;;0.80;;
56629;SDS011;42502;40.732;-74.254;2023-04-03T14:02:31;8.30;;;0.90;;
56629;SDS011;42502;40.732;-74.254;2023-04-03T14:06:37;8.25;;;0.75;;
56629;SDS011;42502;40.732;-74.254;2023-04-03T14:08:38;5.43;;;1.02;;
56629;SDS011;42502;40.732;-74.254;2023-04-03T14:10:39;4.90;;;0.70;;
56629;SDS011;42502;40.732;-74.254;2023-04-03T14:12:40;9.25;;;0.70;;
56629;SDS011;42502;40.732;-74.254;2023-04-03T14:14:41;7.13;;;0.70;;
56629;SDS011;42502;40.732;-74.254;2023-04-03T14:16:44;9.23;;;0.70;;
56629;SDS011;42502;40.732;-74.254;2023-04-03T14:18:48;5.80;;;0.63;;
56629;SDS011;42502;40.732;-74.254;2023-04-03T14:20:51;9.20;;;1.10;;
56629;SDS011;42502;40.732;-74.254;2023-04-03T14:22:52;3.63;;;0.70;;
56629;SDS011;42502;40.732;-74.254;2023-04-03T14:24:56;1.45;;;0.50;;
56629;SDS011;42502;40.732;-74.254;2023-04-03T14:26:57;5.10;;;0.70;;
56629;SDS011;42502;40.732;-74.254;2023-04-03T14:29:12;3.70;;;0.70;;
56629;SDS011;42502;40.732;-74.254;2023-04-03T14:31:14;3.92;;;0.52;;
56629;SDS011;42502;40.732;-74.254;2023-04-03T14:33:18;3.88;;;0.80;;
56629;SDS011;42502;40.732;-74.254;2023-04-03T14:35:21;3.70;;;0.60;;
56629;SDS011;42502;40.732;-74.254;2023-04-03T14:37:23;3.47;;;0.70;;
56629;SDS011;42502;40.732;-74.254;2023-04-03T14:39:27;3.00;;;0.60;;
56629;SDS011;42502;40.732;-74.254;2023-04-03T14:41:28;3.42;;;0.60;;
56629;SDS011;42502;40.732;-74.254;2023-04-03T14:43:29;2.45;;;0.57;;
56629;SDS011;42502;40.732;-74.254;2023-04-03T14:45:33;2.90;;;0.57;;
56629;SDS011;42502;40.732;-74.254;2023-04-03T14:47:50;4.65;;;0.50;;
56629;SDS011;42502;40.732;-74.254;2023-04-03T14:49:52;5.15;;;0.70;;
56629;SDS011;42502;40.732;-74.254;2023-04-03T14:51:54;3.83;;;0.52;;
56629;SDS011;42502;40.732;-74.254;2023-04-03T14:53:55;5.68;;;0.60;;
56629;SDS011;42502;40.732;-74.254;2023-04-03T14:55:59;3.05;;;0.60;;
56629;SDS011;42502;40.732;-74.254;2023-04-03T14:58:00;4.05;;;0.60;;
56629;SDS011;42502;40.732;-74.254;2023-04-03T15:00:01;3.63;;;0.63;;
56629;SDS011;42502;40.732;-74.254;2023-04-03T15:02:18;2.78;;;0.60;;
56629;SDS011;42502;40.732;-74.254;2023-04-03T15:04:36;2.83;;;0.60;;
56629;SDS011;42502;40.732;-74.254;2023-04-03T15:06:37;2.88;;;0.50;;
56629;SDS011;42502;40.732;-74.254;2023-04-03T15:08:38;4.82;;;0.50;;
56629;SDS011;42502;40.732;-74.254;2023-04-03T15:10:41;8.80;;;0.55;;
56629;SDS011;42502;40.732;-74.254;2023-04-03T15:12:45;8.07;;;0.55;;
56629;SDS011;42502;40.732;-74.254;2023-04-03T15:14:46;3.25;;;0.65;;
56629;SDS011;42502;40.732;-74.254;2023-04-03T15:16:48;4.05;;;0.40;;
56629;SDS011;42502;40.732;-74.254;2023-04-03T15:18:49;6.38;;;0.60;;
56629;SDS011;42502;40.732;-74.254;2023-04-03T15:20:50;4.68;;;0.50;;
56629;SDS011;42502;40.732;-74.254;2023-04-03T15:22:53;3.58;;;0.60;;
56629;SDS011;42502;40.732;-74.254;2023-04-03T15:24:56;7.85;;;0.65;;
56629;SDS011;42502;40.732;-74.254;2023-04-03T15:26:57;5.38;;;0.50;;
56629;SDS011;42502;40.732;-74.254;2023-04-03T15:28:58;2.10;;;0.50;;
56629;SDS011;42502;40.732;-74.254;2023-04-03T15:30:59;7.53;;;0.60;;
56629;SDS011;42502;40.732;-74.254;2023-04-03T15:33:00;4.13;;;0.50;;
56629;SDS011;42502;40.732;-74.254;2023-04-03T15:35:01;5.40;;;0.47;;
56629;SDS011;42502;40.732;-74.254;2023-04-03T15:37:02;2.92;;;0.70;;
56629;SDS011;42502;40.732;-74.254;2023-04-03T15:39:03;6.43;;;0.52;;
56629;SDS011;42502;40.732;-74.254;2023-04-03T15:41:04;7.80;;;0.70;;
56629;SDS011;42502;40.732;-74.254;2023-04-03T15:43:05;5.80;;;0.50;;
56629;SDS011;42502;40.732;-74.254;2023-04-03T15:45:07;7.75;;;0.60;;
56629;SDS011;42502;40.732;-74.254;2023-04-03T15:47:08;5.45;;;0.60;;
56629;SDS011;42502;40.732;-74.254;2023-04-03T15:49:12;8.38;;;0.70;;
56629;SDS011;42502;40.732;-74.254;2023-04-03T15:51:13;6.47;;;0.60;;
56629;SDS011;42502;40.732;-74.254;2023-04-03T15:53:14;6.82;;;0.60;;
56629;SDS011;42502;40.732;-74.254;2023-04-03T15:55:15;6.47;;;0.65;;
56629;SDS011;42502;40.732;-74.254;2023-04-03T15:57:19;3.88;;;0.60;;
56629;SDS011;42502;40.732;-74.254;2023-04-03T15:59:26;6.65;;;0.60;;
56629;SDS011;42502;40.732;-74.254;2023-04-03T16:01:29;3.60;;;0.60;;
56629;SDS011;42502;40.732;-74.254;2023-04-03T16:03:31;6.13;;;0.60;;
56629;SDS011;42502;40.732;-74.254;2023-04-03T16:05:32;2.03;;;0.55;;
56629;SDS011;42502;40.732;-74.254;2023-04-03T16:07:36;4.28;;;0.60;;
56629;SDS011;42502;40.732;-74.254;2023-04-03T16:09:38;4.18;;;0.68;;
56629;SDS011;42502;40.732;-74.254;2023-04-03T16:11:41;8.00;;;0.80;;
56629;SDS011;42502;40.732;-74.254;2023-04-03T16:13:43;3.33;;;0.60;;
56629;SDS011;42502;40.732;-74.254;2023-04-03T16:15:44;7.25;;;0.80;;
56629;SDS011;42502;40.732;-74.254;2023-04-03T16:17:45;2.85;;;0.63;;
56629;SDS011;42502;40.732;-74.254;2023-04-03T16:19:48;5.55;;;0.60;;
56629;SDS011;42502;40.732;-74.254;2023-04-03T16:21:48;2.55;;;0.70;;
56629;SDS011;42502;40.732;-74.254;2023-04-03T16:23:49;3.80;;;1.05;;
56629;SDS011;42502;40.732;-74.254;2023-04-03T16:25:51;3.17;;;0.70;;
56629;SDS011;42502;40.732;-74.254;2023-04-03T16:27:51;6.32;;;0.70;;
56629;SDS011;42502;40.732;-74.254;2023-04-03T16:29:53;4.93;;;0.70;;
56629;SDS011;42502;40.732;-74.254;2023-04-03T16:31:55;4.47;;;0.60;;
56629;SDS011;42502;40.732;-74.254;2023-04-03T16:33:58;5.22;;;0.60;;
56629;SDS011;42502;40.732;-74.254;2023-04-03T16:36:01;6.80;;;0.63;;
56629;SDS011;42502;40.732;-74.254;2023-04-03T16:38:04;5.75;;;0.57;;
56629;SDS011;42502;40.732;-74.254;2023-04-03T16:40:06;5.55;;;0.70;;
56629;SDS011;42502;40.732;-74.254;2023-04-03T16:42:07;1.98;;;0.50;;
56629;SDS011;42502;40.732;-74.254;2023-04-03T16:44:09;6.10;;;0.63;;
56629;SDS011;42502;40.732;-74.254;2023-04-03T16:46:13;11.05;;;0.75;;
56629;SDS011;42502;40.732;-74.254;2023-04-03T16:48:14;4.88;;;0.52;;
56629;SDS011;42502;40.732;-74.254;2023-04-03T16:50:15;2.90;;;0.80;;
56629;SDS011;42502;40.732;-74.254;2023-04-03T16:52:16;6.07;;;0.80;;
56629;SDS011;42502;40.732;-74.254;2023-04-03T16:54:17;5.45;;;0.70;;
56629;SDS011;42502;40.732;-74.254;2023-04-03T16:56:18;2.65;;;0.50;;
56629;SDS011;42502;40.732;-74.254;2023-04-03T16:58:18;5.40;;;0.60;;
56629;SDS011;42502;40.732;-74.254;2023-04-03T17:00:19;5.65;;;0.70;;
56629;SDS011;42502;40.732;-74.254;2023-04-03T17:02:21;4.00;;;0.60;;
56629;SDS011;42502;40.732;-74.254;2023-04-03T17:04:24;7.38;;;0.60;;
56629;SDS011;42502;40.732;-74.254;2023-04-03T17:06:26;2.90;;;0.60;;
56629;SDS011;42502;40.732;-74.254;2023-04-03T17:08:27;3.90;;;0.52;;
56629;SDS011;42502;40.732;-74.254;2023-04-03T17:10:28;4.68;;;0.60;;
56629;SDS011;42502;40.732;-74.254;2023-04-03T17:12:29;6.82;;;0.60;;
56629;SDS011;42502;40.732;-74.254;2023-04-03T17:14:30;13.48;;;0.65;;
56629;SDS011;42502;40.732;-74.254;2023-04-03T17:16:32;4.68;;;0.60;;
56629;SDS011;42502;40.732;-74.254;2023-04-03T17:18:35;6.03;;;0.88;;
56629;SDS011;42502;40.732;-74.254;2023-04-03T17:20:36;4.53;;;0.80;;
56629;SDS011;42502;40.732;-74.254;2023-04-03T17:22:38;2.80;;;0.77;;
56629;SDS011;42502;40.732;-74.254;2023-04-03T17:24:39;3.30;;;0.80;;
56629;SDS011;42502;40.732;-74.254;2023-04-03T17:26:43;2.78;;;0.90;;
56629;SDS011;42502;40.732;-74.254;2023-04-03T17:28:44;4.72;;;1.13;;
56629;SDS011;42502;40.732;-74.254;2023-04-03T17:30:45;11.23;;;1.63;;
56629;SDS011;42502;40.732;-74.254;2023-04-03T17:32:46;9.35;;;3.10;;
56629;SDS011;42502;40.732;-74.254;2023-04-03T17:34:47;5.38;;;2.72;;
56629;SDS011;42502;40.732;-74.254;2023-04-03T17:36:48;10.55;;;5.55;;
56629;SDS011;42502;40.732;-74.254;2023-04-03T17:38:52;10.23;;;5.57;;
56629;SDS011;42502;40.732;-74.254;2023-04-03T17:41:03;18.80;;;6.80;;
56629;SDS011;42502;40.732;-74.254;2023-04-03T17:43:06;10.55;;;4.55;;
56629;SDS011;42502;40.732;-74.254;2023-04-03T17:45:07;17.77;;;6.78;;
56629;SDS011;42502;40.732;-74.254;2023-04-03T17:47:08;18.95;;;11.23;;
56629;SDS011;42502;40.732;-74.254;2023-04-03T17:49:09;11.32;;;7.53;;
56629;SDS011;42502;40.732;-74.254;2023-04-03T17:51:15;17.55;;;14.27;;
56629;SDS011;42502;40.732;-74.254;2023-04-03T17:53:18;18.48;;;13.18;;
56629;SDS011;42502;40.732;-74.254;2023-04-03T17:55:18;20.48;;;13.40;;
56629;SDS011;42502;40.732;-74.254;2023-04-03T17:57:23;19.67;;;13.80;;
56629;SDS011;42502;40.732;-74.254;2023-04-03T17:59:23;19.38;;;12.60;;
56629;SDS011;42502;40.732;-74.254;2023-04-03T18:01:29;24.92;;;15.48;;
56629;SDS011;42502;40.732;-74.254;2023-04-03T18:03:32;24.92;;;15.82;;
56629;SDS011;42502;40.732;-74.254;2023-04-03T18:05:33;25.95;;;17.00;;
56629;SDS011;42502;40.732;-74.254;2023-04-03T18:07:42;27.02;;;17.52;;
56629;SDS011;42502;40.732;-74.254;2023-04-03T18:09:43;27.65;;;15.68;;
56629;SDS011;42502;40.732;-74.254;2023-04-03T18:11:46;25.25;;;15.68;;
56629;SDS011;42502;40.732;-74.254;2023-04-03T18:13:48;27.63;;;17.20;;
56629;SDS011;42502;40.732;-74.254;2023-04-03T18:15:49;26.67;;;17.83;;
56629;SDS011;42502;40.732;-74.254;2023-04-03T18:17:50;27.20;;;19.02;;
56629;SDS011;42502;40.732;-74.254;2023-04-03T18:19:56;30.33;;;19.83;;
56629;SDS011;42502;40.732;-74.254;2023-04-03T18:21:58;33.88;;;19.20;;
56629;SDS011;42502;40.732;-74.254;2023-04-03T18:24:03;31.27;;;20.45;;
56629;SDS011;42502;40.732;-74.254;2023-04-03T18:26:06;44.00;;;19.92;;
56629;SDS011;42502;40.732;-74.254;2023-04-03T18:28:10;53.53;;;22.45;;
56629;SDS011;42502;40.732;-74.254;2023-04-03T18:30:12;45.95;;;20.63;;
56629;SDS011;42502;40.732;-74.254;2023-04-03T18:32:18;53.55;;;22.65;;
56629;SDS011;42502;40.732;-74.254;2023-04-03T18:34:20;50.47;;;20.80;;
56629;SDS011;42502;40.732;-74.254;2023-04-03T18:36:21;52.58;;;21.95;;
56629;SDS011;42502;40.732;-74.254;2023-04-03T18:38:23;45.10;;;21.20;;
56629;SDS011;42502;40.732;-74.254;2023-04-03T18:40:23;50.38;;;20.10;;
56629;SDS011;42502;40.732;-74.254;2023-04-03T18:42:24;65.45;;;20.88;;
56629;SDS011;42502;40.732;-74.254;2023-04-03T18:44:26;46.47;;;18.85;;
56629;SDS011;42502;40.732;-74.254;2023-04-03T18:46:31;41.88;;;18.95;;
56629;SDS011;42502;40.732;-74.254;2023-04-03T18:48:32;43.00;;;17.13;;
56629;SDS011;42502;40.732;-74.254;2023-04-03T18:50:34;41.00;;;16.30;;
56629;SDS011;42502;40.732;-74.254;2023-04-03T18:52:38;41.72;;;16.45;;
56629;SDS011;42502;40.732;-74.254;2023-04-03T18:54:38;45.13;;;16.42;;
56629;SDS011;42502;40.732;-74.254;2023-04-03T18:56:40;35.45;;;15.60;;
56629;SDS011;42502;40.732;-74.254;2023-04-03T18:58:47;31.55;;;15.18;;
56629;SDS011;42502;40.732;-74.254;2023-04-03T19:00:48;41.42;;;14.57;;
56629;SDS011;42502;40.732;-74.254;2023-04-03T19:02:49;34.08;;;13.40;;
56629;SDS011;42502;40.732;-74.254;2023-04-03T19:04:50;30.58;;;12.98;;
56629;SDS011;42502;40.732;-74.254;2023-04-03T19:06:53;28.08;;;12.57;;
56629;SDS011;42502;40.732;-74.254;2023-04-03T19:08:54;27.48;;;13.20;;
56629;SDS011;42502;40.732;-74.254;2023-04-03T19:10:55;31.02;;;12.13;;
56629;SDS011;42502;40.732;-74.254;2023-04-03T19:12:55;24.98;;;11.63;;
56629;SDS011;42502;40.732;-74.254;2023-04-03T19:14:56;25.60;;;10.75;;
56629;SDS011;42502;40.732;-74.254;2023-04-03T19:17:00;18.73;;;10.55;;
56629;SDS011;42502;40.732;-74.254;2023-04-03T19:19:02;20.05;;;9.27;;
56629;SDS011;42502;40.732;-74.254;2023-04-03T19:21:03;21.55;;;10.07;;
56629;SDS011;42502;40.732;-74.254;2023-04-03T19:23:04;19.33;;;8.10;;
56629;SDS011;42502;40.732;-74.254;2023-04-03T19:25:08;14.98;;;8.82;;
56629;SDS011;42502;40.732;-74.254;2023-04-03T19:27:10;14.65;;;7.88;;
56629;SDS011;42502;40.732;-74.254;2023-04-03T19:29:11;16.80;;;8.70;;
56629;SDS011;42502;40.732;-74.254;2023-04-03T19:31:16;16.73;;;7.93;;
56629;SDS011;42502;40.732;-74.254;2023-04-03T19:33:20;13.15;;;7.35;;
56629;SDS011;42502;40.732;-74.254;2023-04-03T19:35:21;14.32;;;7.55;;
56629;SDS011;42502;40.732;-74.254;2023-04-03T19:37:22;10.18;;;6.57;;
56629;SDS011;42502;40.732;-74.254;2023-04-03T19:39:24;14.27;;;7.03;;
56629;SDS011;42502;40.732;-74.254;2023-04-03T19:41:26;14.30;;;6.75;;
56629;SDS011;42502;40.732;-74.254;2023-04-03T19:43:29;10.95;;;5.82;;
56629;SDS011;42502;40.732;-74.254;2023-04-03T19:45:30;15.55;;;6.05;;
56629;SDS011;42502;40.732;-74.254;2023-04-03T19:47:32;9.27;;;5.80;;
56629;SDS011;42502;40.732;-74.254;2023-04-03T19:49:34;12.07;;;6.20;;
56629;SDS011;42502;40.732;-74.254;2023-04-03T19:51:35;10.63;;;6.18;;
56629;SDS011;42502;40.732;-74.254;2023-04-03T19:53:36;16.63;;;6.63;;
56629;SDS011;42502;40.732;-74.254;2023-04-03T19:55:37;12.85;;;5.07;;
56629;SDS011;42502;40.732;-74.254;2023-04-03T19:57:38;11.45;;;5.15;;
56629;SDS011;42502;40.732;-74.254;2023-04-03T19:59:39;10.88;;;4.85;;
56629;SDS011;42502;40.732;-74.254;2023-04-03T20:01:39;8.13;;;5.10;;
56629;SDS011;42502;40.732;-74.254;2023-04-03T20:03:40;16.35;;;5.47;;
56629;SDS011;42502;40.732;-74.254;2023-04-03T20:05:42;10.70;;;5.50;;
56629;SDS011;42502;40.732;-74.254;2023-04-03T20:07:42;9.90;;;4.65;;
56629;SDS011;42502;40.732;-74.254;2023-04-03T20:09:47;9.10;;;4.55;;
56629;SDS011;42502;40.732;-74.254;2023-04-03T20:11:50;7.53;;;4.95;;
56629;SDS011;42502;40.732;-74.254;2023-04-03T20:13:52;7.90;;;4.07;;
56629;SDS011;42502;40.732;-74.254;2023-04-03T20:15:54;8.35;;;4.80;;
56629;SDS011;42502;40.732;-74.254;2023-04-03T20:17:57;11.77;;;4.35;;
56629;SDS011;42502;40.732;-74.254;2023-04-03T20:19:59;10.63;;;4.57;;
56629;SDS011;42502;40.732;-74.254;2023-04-03T20:22:00;4.22;;;3.35;;
56629;SDS011;42502;40.732;-74.254;2023-04-03T20:24:03;8.20;;;4.50;;
56629;SDS011;42502;40.732;-74.254;2023-04-03T20:26:06;9.00;;;4.20;;
56629;SDS011;42502;40.732;-74.254;2023-04-03T20:28:08;4.82;;;3.83;;
56629;SDS011;42502;40.732;-74.254;2023-04-03T20:30:10;7.82;;;3.53;;
56629;SDS011;42502;40.732;-74.254;2023-04-03T20:32:13;6.63;;;3.55;;
56629;SDS011;42502;40.732;-74.254;2023-04-03T20:34:15;6.55;;;3.50;;
56629;SDS011;42502;40.732;-74.254;2023-04-03T20:36:17;7.03;;;3.42;;
56629;SDS011;42502;40.732;-74.254;2023-04-03T20:38:22;7.70;;;3.95;;
56629;SDS011;42502;40.732;-74.254;2023-04-03T20:40:24;5.18;;;3.03;;
56629;SDS011;42502;40.732;-74.254;2023-04-03T20:42:26;7.43;;;3.20;;
56629;SDS011;42502;40.732;-74.254;2023-04-03T20:44:27;8.32;;;3.65;;
56629;SDS011;42502;40.732;-74.254;2023-04-03T20:46:28;5.53;;;3.10;;
56629;SDS011;42502;40.732;-74.254;2023-04-03T20:48:30;9.18;;;4.13;;
56629;SDS011;42502;40.732;-74.254;2023-04-03T20:50:31;9.55;;;3.40;;
56629;SDS011;42502;40.732;-74.254;2023-04-03T20:52:33;10.15;;;3.47;;
56629;SDS011;42502;40.732;-74.254;2023-04-03T20:54:34;4.82;;;2.60;;
56629;SDS011;42502;40.732;-74.254;2023-04-03T20:56:38;8.63;;;3.13;;
56629;SDS011;42502;40.732;-74.254;2023-04-03T20:58:43;19.08;;;3.28;;
56629;SDS011;42502;40.732;-74.254;2023-04-03T21:00:45;17.63;;;3.13;;
56629;SDS011;42502;40.732;-74.254;2023-04-03T21:02:55;14.63;;;2.60;;
56629;SDS011;42502;40.732;-74.254;2023-04-03T21:04:58;16.73;;;3.10;;
56629;SDS011;42502;40.732;-74.254;2023-04-03T21:19:35;13.75;;;2.38;;
56629;SDS011;42502;40.732;-74.254;2023-04-03T21:21:42;12.63;;;2.33;;
56629;SDS011;42502;40.732;-74.254;2023-04-03T21:23:45;8.93;;;2.20;;
56629;SDS011;42502;40.732;-74.254;2023-04-03T21:25:48;11.23;;;2.30;;
56629;SDS011;42502;40.732;-74.254;2023-04-03T21:27:49;12.13;;;2.65;;
56629;SDS011;42502;40.732;-74.254;2023-04-03T21:29:51;8.93;;;2.47;;
56629;SDS011;42502;40.732;-74.254;2023-04-03T21:31:56;18.60;;;2.45;;
56629;SDS011;42502;40.732;-74.254;2023-04-03T21:33:58;10.40;;;2.50;;
56629;SDS011;42502;40.732;-74.254;2023-04-03T21:35:59;11.10;;;2.00;;
56629;SDS011;42502;40.732;-74.254;2023-04-03T21:38:00;11.93;;;2.00;;
56629;SDS011;42502;40.732;-74.254;2023-04-03T21:40:01;13.02;;;2.17;;
56629;SDS011;42502;40.732;-74.254;2023-04-03T21:42:03;8.05;;;1.80;;
56629;SDS011;42502;40.732;-74.254;2023-04-03T21:44:04;9.73;;;2.30;;
56629;SDS011;42502;40.732;-74.254;2023-04-03T21:46:10;12.77;;;2.40;;
56629;SDS011;42502;40.732;-74.254;2023-04-03T21:48:11;14.35;;;2.38;;
56629;SDS011;42502;40.732;-74.254;2023-04-03T21:50:15;10.18;;;2.20;;
56629;SDS011;42502;40.732;-74.254;2023-04-03T21:52:18;12.32;;;2.08;;